Terminal Aerodrome Forecast
Issued by NWS

Home | Current Version | Previous Version | Text Only | Print | Product List | Glossary On
Versions: 1 2 3 4 5 6 7 8 9 10 11 12 13 14
983
FTUS42 KMLB 241122
TAFTIX
TAF
KTIX 241122Z 2412/2512 18005KT P6SM FEW020 SCT250
     FM241300 12008KT P6SM VCSH SCT030 SCT080 BKN250
     FM241800 11010KT P6SM VCSH SCT035 BKN250
     FM250000 13006KT P6SM SCT030 SCT080 BKN250
     FM250600 21003KT P6SM SCT020 BKN250=

USA.gov is the U.S. government's official web portal to all federal, state and local government web resources and services.